Wanamakers, Pennsylvania
Current Conditions -  °F | °C
As of 5:54 PM on Saturday 20 Dec 2014 (Local Time) from KRDG Reporting Station
Overcast Overcast  
Wind Chill:   Ceiling: 3200
Heat Index:   Visibility: 10mi
Dew Point: -6°   Wind: 0mph
Humidity: 61%   Direction: NA
Pressure: 30.27"   Gusts: NA
Location:  40.6329°N, 75.8768°W
Report Text: KRDG 202254Z AUTO 00000KT 10SM OVC032 01/M06 A3027 RMK AO2 SLP257 T00061061
Loading
Personal Weather Stations






























Interactive Weather Map New forecast layout! Learn more

10-Day Weather Forecast

Advertisements
Track Severe Weather on mobile